This is the latest recevied weather packets stored in our database for station/object N7WSS. If no packets are shown the sender has not sent any weather packets the latest 10 day(s).
| Time | Temp. | Humidity | Pressure | Rain* | Wind** | Luminosity | Snow |
|---|---|---|---|---|---|---|---|
| 1787410233 | 29.44° C | 44% | 1016.4 hPa | 0 mm | - | - | - |
| 1787409930 | 29.44° C | 45% | 1016.3 hPa | 0 mm | - | - | - |
| 1787409625 | 29.44° C | 45% | 1016.3 hPa | 0 mm | - | - | - |
| 1787409321 | 28.33° C | 48% | 1016.3 hPa | 0 mm | - | - | - |
| 1787409017 | 28.33° C | 52% | 1016.3 hPa | 0 mm | - | - | - |
| 1787408712 | 29.44° C | 49% | 1016.3 hPa | 0 mm | - | - | - |
| 1787408407 | 30° C | 46% | 1016.1 hPa | 0 mm | - | - | - |
| 1787408103 | 28.89° C | 47% | 1016.3 hPa | 0 mm | - | - | - |
| 1787407798 | 27.78° C | 51% | 1016.1 hPa | 0 mm | - | - | - |
| 1787407494 | 27.22° C | 53% | 1016.2 hPa | 0 mm | - | - | - |
| 1787407193 | 27.78° C | 54% | 1016.2 hPa | 0 mm | - | - | - |
| 1787406889 | 27.78° C | 53% | 1016 hPa | 0 mm | - | - | - |
| 1787406584 | 27.78° C | 51% | 1015.7 hPa | 0 mm | - | - | - |
| 1787406281 | 26.67° C | 53% | 1016 hPa | 0 mm | - | - | - |
| 1787405977 | 25.56° C | 55% | 1015.9 hPa | 0 mm | - | - | - |
| 1787405673 | 25° C | 54% | 1016.1 hPa | 0 mm | - | - | - |
| 1787405368 | 24.44° C | 56% | 1015.9 hPa | 0 mm | - | - | - |
| 1787405064 | 24.44° C | 56% | 1015.7 hPa | 0 mm | - | - | - |
| 1787404759 | 23.89° C | 56% | 1015.9 hPa | 0 mm | - | - | - |
| 1787404454 | 23.33° C | 58% | 1015.7 hPa | 0 mm | - | - | - |
| 1787404149 | 23.33° C | 59% | 1015.7 hPa | 0 mm | - | - | - |
| 1787403845 | 23.33° C | 59% | 1015.5 hPa | 0 mm | - | - | - |
| 1787403544 | 23.33° C | 59% | 1015.4 hPa | 0 mm | - | - | - |
| 1787403239 | 22.78° C | 61% | 1015.4 hPa | 0 mm | - | - | - |
| 1787402936 | 22.78° C | 61% | 1015.4 hPa | 0 mm | - | - | - |
* Rain latest hour (hover to see other rain measurements)
** Current wind speed in m/s (hover to see current wind gust speed)